Terminal Aerodrome Forecast
Issued by NWS Wilmington, OH

Current Version | Previous Version | Text Only | Print | Product List | Glossary Off
Versions: 1 2 3 4 5 6 7 8 9 10 11 12 13 14 15 16 17 18 19 20 21 22 23

271
FTUS41 KILN 301134
TAFCVG
TAF
KCVG 301134Z 3012/3118 33005KT P6SM FEW070 SCT250
     FM301500 32008KT P6SM SCT040
     FM310000 00000KT P6SM SKC
     FM311500 07005KT P6SM FEW050=

USA.gov is the U.S. government's official web portal to all federal, state and local government web resources and services.